sensor_id;sensor_type;location;lat;lon;timestamp;pressure;altitude;pressure_sealevel;temperature;humidity
50125;BME280;36023;48.670;6.184;2023-04-20T00:00:04;98985.44;;;17.39;36.35
50125;BME280;36023;48.670;6.184;2023-04-20T00:02:38;98984.53;;;17.40;36.18
50125;BME280;36023;48.670;6.184;2023-04-20T00:05:08;98979.38;;;17.38;36.22
50125;BME280;36023;48.670;6.184;2023-04-20T00:07:35;98967.13;;;17.39;36.08
50125;BME280;36023;48.670;6.184;2023-04-20T00:10:01;98966.28;;;17.38;36.11
50125;BME280;36023;48.670;6.184;2023-04-20T00:12:28;98973.28;;;17.38;36.08
50125;BME280;36023;48.670;6.184;2023-04-20T00:14:56;98969.81;;;17.37;35.83
50125;BME280;36023;48.670;6.184;2023-04-20T00:17:21;98959.34;;;17.37;35.95
50125;BME280;36023;48.670;6.184;2023-04-20T00:19:47;98957.66;;;17.36;35.84
50125;BME280;36023;48.670;6.184;2023-04-20T00:22:13;98951.59;;;17.36;35.77
50125;BME280;36023;48.670;6.184;2023-04-20T00:24:39;98945.41;;;17.37;35.96
50125;BME280;36023;48.670;6.184;2023-04-20T00:27:04;98946.34;;;17.36;35.57
50125;BME280;36023;48.670;6.184;2023-04-20T00:29:30;98941.13;;;17.36;35.58
50125;BME280;36023;48.670;6.184;2023-04-20T00:31:56;98940.22;;;17.35;35.65
50125;BME280;36023;48.670;6.184;2023-04-20T00:34:21;98935.94;;;17.34;35.56
50125;BME280;36023;48.670;6.184;2023-04-20T00:36:47;98935.88;;;17.36;35.42
50125;BME280;36023;48.670;6.184;2023-04-20T00:39:14;98928.06;;;17.34;35.34
50125;BME280;36023;48.670;6.184;2023-04-20T00:41:43;98929.84;;;17.34;35.38
50125;BME280;36023;48.670;6.184;2023-04-20T00:44:11;98925.53;;;17.33;35.47
50125;BME280;36023;48.670;6.184;2023-04-20T00:46:39;98923.75;;;17.33;35.32
50125;BME280;36023;48.670;6.184;2023-04-20T00:49:06;98916.84;;;17.32;35.29
50125;BME280;36023;48.670;6.184;2023-04-20T00:51:33;98915.06;;;17.33;35.19
50125;BME280;36023;48.670;6.184;2023-04-20T00:53:59;98914.22;;;17.32;35.25
50125;BME280;36023;48.670;6.184;2023-04-20T00:56:25;98912.53;;;17.31;35.31
50125;BME280;36023;48.670;6.184;2023-04-20T00:58:52;98905.59;;;17.30;35.04
50125;BME280;36023;48.670;6.184;2023-04-20T01:01:18;98917.84;;;17.30;35.17
50125;BME280;36023;48.670;6.184;2023-04-20T01:03:45;98908.22;;;17.30;35.08
50125;BME280;36023;48.670;6.184;2023-04-20T01:06:13;98904.75;;;17.30;35.13
50125;BME280;36023;48.670;6.184;2023-04-20T01:08:50;98899.53;;;17.30;34.97
50125;BME280;36023;48.670;6.184;2023-04-20T01:11:16;98902.22;;;17.28;34.83
50125;BME280;36023;48.670;6.184;2023-04-20T01:13:42;98902.22;;;17.28;34.87
50125;BME280;36023;48.670;6.184;2023-04-20T01:16:08;98899.53;;;17.30;34.82
50125;BME280;36023;48.670;6.184;2023-04-20T01:18:45;98889.16;;;17.28;34.84
50125;BME280;36023;48.670;6.184;2023-04-20T01:21:14;98883.06;;;17.27;34.63
50125;BME280;36023;48.670;6.184;2023-04-20T01:23:41;98883.91;;;17.28;34.78
50125;BME280;36023;48.670;6.184;2023-04-20T01:26:09;98877.81;;;17.27;34.78
50125;BME280;36023;48.670;6.184;2023-04-20T01:28:36;98872.66;;;17.26;34.75
50125;BME280;36023;48.670;6.184;2023-04-20T01:31:05;98873.50;;;17.26;34.65
50125;BME280;36023;48.670;6.184;2023-04-20T01:33:32;98868.25;;;17.26;34.80
50125;BME280;36023;48.670;6.184;2023-04-20T01:35:57;98870.97;;;17.25;34.59
50125;BME280;36023;48.670;6.184;2023-04-20T01:38:25;98864.78;;;17.26;34.71
50125;BME280;36023;48.670;6.184;2023-04-20T01:40:52;98859.56;;;17.26;34.50
50125;BME280;36023;48.670;6.184;2023-04-20T01:43:21;98854.31;;;17.26;34.88
50125;BME280;36023;48.670;6.184;2023-04-20T01:45:47;98850.88;;;17.25;34.66
50125;BME280;36023;48.670;6.184;2023-04-20T01:48:12;98849.09;;;17.26;34.66
50125;BME280;36023;48.670;6.184;2023-04-20T01:50:38;98843.94;;;17.24;34.73
50125;BME280;36023;48.670;6.184;2023-04-20T01:53:03;98840.41;;;17.25;34.66
50125;BME280;36023;48.670;6.184;2023-04-20T01:55:29;98836.09;;;17.24;34.82
50125;BME280;36023;48.670;6.184;2023-04-20T01:57:55;98843.94;;;17.24;34.37
50125;BME280;36023;48.670;6.184;2023-04-20T02:00:22;98842.25;;;17.23;34.50
50125;BME280;36023;48.670;6.184;2023-04-20T02:02:48;98837.00;;;17.23;34.65
50125;BME280;36023;48.670;6.184;2023-04-20T02:05:14;98832.72;;;17.22;34.60
50125;BME280;36023;48.670;6.184;2023-04-20T02:07:40;98841.41;;;17.23;34.42
50125;BME280;36023;48.670;6.184;2023-04-20T02:10:09;98839.63;;;17.23;34.30
50125;BME280;36023;48.670;6.184;2023-04-20T02:12:35;98837.94;;;17.22;34.41
50125;BME280;36023;48.670;6.184;2023-04-20T02:15:03;98828.41;;;17.21;34.52
50125;BME280;36023;48.670;6.184;2023-04-20T02:17:29;98834.47;;;17.22;34.41
50125;BME280;36023;48.670;6.184;2023-04-20T02:19:57;98830.09;;;17.22;34.41
50125;BME280;36023;48.670;6.184;2023-04-20T02:22:23;98821.47;;;17.20;34.40
50125;BME280;36023;48.670;6.184;2023-04-20T02:24:50;98824.94;;;17.21;34.39
50125;BME280;36023;48.670;6.184;2023-04-20T02:27:15;98824.09;;;17.20;34.55
50125;BME280;36023;48.670;6.184;2023-04-20T02:29:41;98824.16;;;17.19;34.33
50125;BME280;36023;48.670;6.184;2023-04-20T02:32:07;98815.47;;;17.18;34.35
50125;BME280;36023;48.670;6.184;2023-04-20T02:34:32;98825.00;;;17.19;34.25
50125;BME280;36023;48.670;6.184;2023-04-20T02:36:58;98825.94;;;17.18;34.26
50125;BME280;36023;48.670;6.184;2023-04-20T02:39:23;98824.16;;;17.19;34.25
50125;BME280;36023;48.670;6.184;2023-04-20T02:41:52;98808.53;;;17.17;34.20
50125;BME280;36023;48.670;6.184;2023-04-20T02:44:20;98816.38;;;17.17;34.38
50125;BME280;36023;48.670;6.184;2023-04-20T02:46:47;98814.69;;;17.16;34.03
50125;BME280;36023;48.670;6.184;2023-04-20T02:49:12;98813.84;;;17.16;34.24
50125;BME280;36023;48.670;6.184;2023-04-20T02:51:41;98809.56;;;17.15;34.28
50125;BME280;36023;48.670;6.184;2023-04-20T02:54:07;98810.41;;;17.15;34.02
50125;BME280;36023;48.670;6.184;2023-04-20T02:56:32;98819.94;;;17.16;34.23
50125;BME280;36023;48.670;6.184;2023-04-20T02:59:04;98815.63;;;17.15;34.01
50125;BME280;36023;48.670;6.184;2023-04-20T03:01:48;98811.31;;;17.14;34.23
50125;BME280;36023;48.670;6.184;2023-04-20T03:04:17;98815.72;;;17.14;34.04
50125;BME280;36023;48.670;6.184;2023-04-20T03:06:53;98814.88;;;17.13;34.04
50125;BME280;36023;48.670;6.184;2023-04-20T03:09:25;98814.03;;;17.13;34.01
50125;BME280;36023;48.670;6.184;2023-04-20T03:12:10;98809.63;;;17.13;34.13
50125;BME280;36023;48.670;6.184;2023-04-20T03:14:57;98811.47;;;17.11;34.05
50125;BME280;36023;48.670;6.184;2023-04-20T03:17:35;98808.84;;;17.11;34.09
50125;BME280;36023;48.670;6.184;2023-04-20T03:20:01;98808.94;;;17.10;34.07
50125;BME280;36023;48.670;6.184;2023-04-20T03:22:27;98807.25;;;17.09;34.12
50125;BME280;36023;48.670;6.184;2023-04-20T03:24:56;98806.31;;;17.10;33.80
50125;BME280;36023;48.670;6.184;2023-04-20T03:27:41;98802.84;;;17.09;33.85
50125;BME280;36023;48.670;6.184;2023-04-20T03:30:11;98806.41;;;17.08;33.96
50125;BME280;36023;48.670;6.184;2023-04-20T03:32:37;98804.63;;;17.09;33.99
50125;BME280;36023;48.670;6.184;2023-04-20T03:35:04;98801.16;;;17.08;34.04
50125;BME280;36023;48.670;6.184;2023-04-20T03:37:30;98807.25;;;17.09;33.75
50125;BME280;36023;48.670;6.184;2023-04-20T03:39:55;98806.41;;;17.08;33.96
50125;BME280;36023;48.670;6.184;2023-04-20T03:42:23;98807.31;;;17.07;33.79
50125;BME280;36023;48.670;6.184;2023-04-20T03:44:49;98805.56;;;17.08;34.24
50125;BME280;36023;48.670;6.184;2023-04-20T03:47:15;98804.72;;;17.07;33.98
50125;BME280;36023;48.670;6.184;2023-04-20T03:49:41;98796.84;;;17.07;33.60
50125;BME280;36023;48.670;6.184;2023-04-20T03:52:06;98793.41;;;17.07;33.67
50125;BME280;36023;48.670;6.184;2023-04-20T03:54:32;98799.47;;;17.07;33.92
50125;BME280;36023;48.670;6.184;2023-04-20T03:56:58;98797.78;;;17.06;33.93
50125;BME280;36023;48.670;6.184;2023-04-20T03:59:27;98800.41;;;17.06;33.85
50125;BME280;36023;48.670;6.184;2023-04-20T04:01:53;98796.94;;;17.06;33.78
50125;BME280;36023;48.670;6.184;2023-04-20T04:04:19;98799.56;;;17.06;33.97
50125;BME280;36023;48.670;6.184;2023-04-20T04:06:45;98792.63;;;17.05;33.79
50125;BME280;36023;48.670;6.184;2023-04-20T04:09:13;98800.47;;;17.05;33.96
50125;BME280;36023;48.670;6.184;2023-04-20T04:11:38;98793.53;;;17.04;33.66
50125;BME280;36023;48.670;6.184;2023-04-20T04:14:05;98794.31;;;17.06;33.98
50125;BME280;36023;48.670;6.184;2023-04-20T04:16:34;98792.69;;;17.03;33.81
50125;BME280;36023;48.670;6.184;2023-04-20T04:19:00;98792.69;;;17.03;33.95
50125;BME280;36023;48.670;6.184;2023-04-20T04:21:26;98794.38;;;17.04;34.09
50125;BME280;36023;48.670;6.184;2023-04-20T04:23:58;98792.69;;;17.03;34.03
50125;BME280;36023;48.670;6.184;2023-04-20T04:26:33;98786.63;;;17.03;33.99
50125;BME280;36023;48.670;6.184;2023-04-20T04:28:59;98780.53;;;17.02;34.07
50125;BME280;36023;48.670;6.184;2023-04-20T04:31:26;98785.75;;;17.02;33.90
50125;BME280;36023;48.670;6.184;2023-04-20T04:33:52;98778.84;;;17.01;33.97
50125;BME280;36023;48.670;6.184;2023-04-20T04:36:26;98780.63;;;17.01;33.90
50125;BME280;36023;48.670;6.184;2023-04-20T04:38:53;98776.16;;;17.03;34.95
50125;BME280;36023;48.670;6.184;2023-04-20T04:41:19;98792.38;;;17.09;34.96
50125;BME280;36023;48.670;6.184;2023-04-20T04:43:47;98786.13;;;17.12;35.31
50125;BME280;36023;48.670;6.184;2023-04-20T04:46:24;98791.91;;;17.18;35.22
50125;BME280;36023;48.670;6.184;2023-04-20T04:48:49;98787.28;;;17.23;35.32
50125;BME280;36023;48.670;6.184;2023-04-20T04:51:17;98779.97;;;17.30;35.34
50125;BME280;36023;48.670;6.184;2023-04-20T04:53:42;98775.28;;;17.37;35.55
50125;BME280;36023;48.670;6.184;2023-04-20T04:56:11;98779.31;;;17.42;35.62
50125;BME280;36023;48.670;6.184;2023-04-20T04:58:38;98771.22;;;17.47;35.54
50125;BME280;36023;48.670;6.184;2023-04-20T05:01:04;98771.75;;;17.53;35.63
50125;BME280;36023;48.670;6.184;2023-04-20T05:03:30;98768.88;;;17.58;35.55
50125;BME280;36023;48.670;6.184;2023-04-20T05:05:56;98764.25;;;17.63;35.51
50125;BME280;36023;48.670;6.184;2023-04-20T05:08:22;98767.56;;;17.67;35.51
50125;BME280;36023;48.670;6.184;2023-04-20T05:10:49;98781.25;;;17.72;35.53
50125;BME280;36023;48.670;6.184;2023-04-20T05:13:14;98781.97;;;17.75;35.65
50125;BME280;36023;48.670;6.184;2023-04-20T05:15:40;98780.00;;;17.79;35.36
50125;BME280;36023;48.670;6.184;2023-04-20T05:18:05;98773.75;;;17.81;35.51
50125;BME280;36023;48.670;6.184;2023-04-20T05:20:31;98777.06;;;17.85;35.41
50125;BME280;36023;48.670;6.184;2023-04-20T05:22:58;98776.03;;;17.88;35.37
50125;BME280;36023;48.670;6.184;2023-04-20T05:25:23;98768.09;;;17.89;35.39
50125;BME280;36023;48.670;6.184;2023-04-20T05:27:49;98767.09;;;17.92;35.43
50125;BME280;36023;48.670;6.184;2023-04-20T05:30:15;98768.78;;;17.93;35.34
50125;BME280;36023;48.670;6.184;2023-04-20T05:32:42;98761.69;;;17.95;35.43
50125;BME280;36023;48.670;6.184;2023-04-20T05:35:09;98759.81;;;17.97;35.42
50125;BME280;36023;48.670;6.184;2023-04-20T05:37:35;98747.56;;;17.97;35.35
50125;BME280;36023;48.670;6.184;2023-04-20T05:40:00;98749.28;;;17.98;35.27
50125;BME280;36023;48.670;6.184;2023-04-20T05:42:28;98743.94;;;18.00;35.39
50125;BME280;36023;48.670;6.184;2023-04-20T05:44:55;98756.09;;;18.01;35.27
50125;BME280;36023;48.670;6.184;2023-04-20T05:47:21;98755.25;;;18.00;35.34
50125;BME280;36023;48.670;6.184;2023-04-20T05:49:46;98762.09;;;18.03;35.25
50125;BME280;36023;48.670;6.184;2023-04-20T05:52:12;98758.63;;;18.02;35.17
50125;BME280;36023;48.670;6.184;2023-04-20T05:54:39;98745.44;;;18.04;35.16
50125;BME280;36023;48.670;6.184;2023-04-20T05:57:05;98742.75;;;18.05;35.35
50125;BME280;36023;48.670;6.184;2023-04-20T05:59:32;98757.59;;;18.05;35.28
50125;BME280;36023;48.670;6.184;2023-04-20T06:01:57;98748.91;;;18.04;35.36
50125;BME280;36023;48.670;6.184;2023-04-20T06:04:23;98758.50;;;18.05;35.16
50125;BME280;36023;48.670;6.184;2023-04-20T06:06:49;98754.09;;;18.06;35.22
50125;BME280;36023;48.670;6.184;2023-04-20T06:09:15;98751.47;;;18.06;35.08
50125;BME280;36023;48.670;6.184;2023-04-20T06:11:41;98759.34;;;18.06;35.28
50125;BME280;36023;48.670;6.184;2023-04-20T06:14:06;98747.13;;;18.05;35.22
50125;BME280;36023;48.670;6.184;2023-04-20T06:16:32;98744.50;;;18.05;35.31
50125;BME280;36023;48.670;6.184;2023-04-20T06:18:58;98741.97;;;18.03;35.19
50125;BME280;36023;48.670;6.184;2023-04-20T06:21:23;98738.59;;;18.01;35.27
50125;BME280;36023;48.670;6.184;2023-04-20T06:23:49;98737.84;;;17.99;35.33
50125;BME280;36023;48.670;6.184;2023-04-20T06:26:16;98737.94;;;17.98;35.38
50125;BME280;36023;48.670;6.184;2023-04-20T06:28:42;98733.59;;;17.97;35.23
50125;BME280;36023;48.670;6.184;2023-04-20T06:31:07;98729.41;;;17.94;35.28
50125;BME280;36023;48.670;6.184;2023-04-20T06:33:33;98729.50;;;17.93;35.21
50125;BME280;36023;48.670;6.184;2023-04-20T06:35:58;98726.03;;;17.92;35.25
50125;BME280;36023;48.670;6.184;2023-04-20T06:38:24;98722.66;;;17.90;35.39
50125;BME280;36023;48.670;6.184;2023-04-20T06:40:50;98727.09;;;17.88;35.39
50125;BME280;36023;48.670;6.184;2023-04-20T06:43:17;98727.19;;;17.87;35.42
50125;BME280;36023;48.670;6.184;2023-04-20T06:45:43;98723.00;;;17.84;35.47
50125;BME280;36023;48.670;6.184;2023-04-20T06:48:09;98723.06;;;17.83;35.47
50125;BME280;36023;48.670;6.184;2023-04-20T06:50:34;98710.88;;;17.81;35.71
50125;BME280;36023;48.670;6.184;2023-04-20T06:53:02;98719.75;;;17.79;35.79
50125;BME280;36023;48.670;6.184;2023-04-20T06:55:28;98719.00;;;17.77;35.72
50125;BME280;36023;48.670;6.184;2023-04-20T06:57:55;98711.25;;;17.75;35.72
50125;BME280;36023;48.670;6.184;2023-04-20T07:00:24;98716.53;;;17.74;36.12
50125;BME280;36023;48.670;6.184;2023-04-20T07:02:52;98726.03;;;17.76;37.06
50125;BME280;36023;48.670;6.184;2023-04-20T07:05:19;98717.16;;;17.79;37.66
50125;BME280;36023;48.670;6.184;2023-04-20T07:07:45;98709.19;;;17.80;37.93
50125;BME280;36023;48.670;6.184;2023-04-20T07:10:12;98715.22;;;17.83;38.37
50125;BME280;36023;48.670;6.184;2023-04-20T07:12:39;98718.75;;;17.81;38.74
50125;BME280;36023;48.670;6.184;2023-04-20T07:15:06;98727.53;;;17.80;39.04
50125;BME280;36023;48.670;6.184;2023-04-20T07:17:32;98725.84;;;17.79;39.18
50125;BME280;36023;48.670;6.184;2023-04-20T07:19:58;98735.34;;;17.82;39.47
50125;BME280;36023;48.670;6.184;2023-04-20T07:22:35;98737.00;;;17.83;39.86
50125;BME280;36023;48.670;6.184;2023-04-20T07:25:04;98728.31;;;17.83;40.01
50125;BME280;36023;48.670;6.184;2023-04-20T07:27:34;98729.22;;;17.81;40.06
50125;BME280;36023;48.670;6.184;2023-04-20T07:30:00;98729.22;;;17.81;40.19
50125;BME280;36023;48.670;6.184;2023-04-20T07:32:26;98733.56;;;17.83;40.37
50125;BME280;36023;48.670;6.184;2023-04-20T07:34:51;98725.69;;;17.83;40.38
50125;BME280;36023;48.670;6.184;2023-04-20T07:37:18;98731.69;;;17.85;40.54
50125;BME280;36023;48.670;6.184;2023-04-20T07:39:43;98727.28;;;17.85;40.56
50125;BME280;36023;48.670;6.184;2023-04-20T07:42:10;98722.81;;;17.87;40.50
50125;BME280;36023;48.670;6.184;2023-04-20T07:44:36;98720.09;;;17.89;40.67
50125;BME280;36023;48.670;6.184;2023-04-20T07:47:02;98734.88;;;17.90;40.55
50125;BME280;36023;48.670;6.184;2023-04-20T07:49:28;98726.19;;;17.89;40.28
50125;BME280;36023;48.670;6.184;2023-04-20T07:51:53;98721.78;;;17.90;40.58
50125;BME280;36023;48.670;6.184;2023-04-20T07:54:19;98730.56;;;17.89;40.63
50125;BME280;36023;48.670;6.184;2023-04-20T07:56:45;98726.19;;;17.89;40.47
50125;BME280;36023;48.670;6.184;2023-04-20T07:59:13;98720.09;;;17.89;40.42
50125;BME280;36023;48.670;6.184;2023-04-20T08:01:38;98723.56;;;17.89;40.38
50125;BME280;36023;48.670;6.184;2023-04-20T08:04:04;98719.25;;;17.88;40.54
50125;BME280;36023;48.670;6.184;2023-04-20T08:06:32;98716.72;;;17.87;40.34
50125;BME280;36023;48.670;6.184;2023-04-20T08:08:59;98715.03;;;17.86;40.41
50125;BME280;36023;48.670;6.184;2023-04-20T08:11:25;98711.66;;;17.84;40.35
50125;BME280;36023;48.670;6.184;2023-04-20T08:13:51;98708.25;;;17.81;40.22
50125;BME280;36023;48.670;6.184;2023-04-20T08:16:18;98702.34;;;17.78;40.12
50125;BME280;36023;48.670;6.184;2023-04-20T08:18:44;98699.09;;;17.74;39.95
50125;BME280;36023;48.670;6.184;2023-04-20T08:21:10;98696.63;;;17.71;40.14
50125;BME280;36023;48.670;6.184;2023-04-20T08:23:36;98702.00;;;17.68;39.92
50125;BME280;36023;48.670;6.184;2023-04-20T08:26:04;98699.53;;;17.65;39.69
50125;BME280;36023;48.670;6.184;2023-04-20T08:28:29;98703.09;;;17.64;39.56
50125;BME280;36023;48.670;6.184;2023-04-20T08:30:56;98698.97;;;17.60;39.54
50125;BME280;36023;48.670;6.184;2023-04-20T08:33:22;98692.03;;;17.59;39.34
50125;BME280;36023;48.670;6.184;2023-04-20T08:35:49;98686.00;;;17.57;39.60
50125;BME280;36023;48.670;6.184;2023-04-20T08:38:16;98684.25;;;17.58;39.43
50125;BME280;36023;48.670;6.184;2023-04-20T08:40:45;98679.94;;;17.57;39.51
50125;BME280;36023;48.670;6.184;2023-04-20T08:43:12;98681.72;;;17.56;39.38
50125;BME280;36023;48.670;6.184;2023-04-20T08:45:38;98678.25;;;17.55;39.33
50125;BME280;36023;48.670;6.184;2023-04-20T08:48:08;98674.59;;;17.58;39.25
50125;BME280;36023;48.670;6.184;2023-04-20T08:50:35;98671.94;;;17.60;39.17
50125;BME280;36023;48.670;6.184;2023-04-20T08:53:03;98667.69;;;17.57;39.28
50125;BME280;36023;48.670;6.184;2023-04-20T08:55:28;98672.06;;;17.57;39.19
50125;BME280;36023;48.670;6.184;2023-04-20T08:57:54;98666.94;;;17.55;39.37
50125;BME280;36023;48.670;6.184;2023-04-20T09:00:21;98663.56;;;17.53;39.02
50125;BME280;36023;48.670;6.184;2023-04-20T09:02:50;98661.88;;;17.52;39.03
50125;BME280;36023;48.670;6.184;2023-04-20T09:05:29;98661.94;;;17.50;39.11
50125;BME280;36023;48.670;6.184;2023-04-20T09:07:57;98648.94;;;17.49;39.00
50125;BME280;36023;48.670;6.184;2023-04-20T09:10:24;98650.81;;;17.47;38.98
50125;BME280;36023;48.670;6.184;2023-04-20T09:12:50;98649.13;;;17.46;39.17
50125;BME280;36023;48.670;6.184;2023-04-20T09:15:28;98645.56;;;17.47;39.29
50125;BME280;36023;48.670;6.184;2023-04-20T09:17:54;98635.94;;;17.47;39.18
50125;BME280;36023;48.670;6.184;2023-04-20T09:20:30;98640.25;;;17.48;39.18
50125;BME280;36023;48.670;6.184;2023-04-20T09:22:56;98647.34;;;17.46;38.99
50125;BME280;36023;48.670;6.184;2023-04-20T09:25:31;98644.03;;;17.43;38.76
50125;BME280;36023;48.670;6.184;2023-04-20T09:27:59;98642.34;;;17.42;38.89
50125;BME280;36023;48.670;6.184;2023-04-20T09:30:56;98645.81;;;17.42;39.07
50125;BME280;36023;48.670;6.184;2023-04-20T09:33:27;98635.28;;;17.44;39.23
50125;BME280;36023;48.670;6.184;2023-04-20T09:36:02;98640.50;;;17.44;39.10
50125;BME280;36023;48.670;6.184;2023-04-20T09:38:28;98636.13;;;17.44;38.95
50125;BME280;36023;48.670;6.184;2023-04-20T09:40:57;98637.88;;;17.44;38.98
50125;BME280;36023;48.670;6.184;2023-04-20T09:43:27;98632.72;;;17.42;39.29
50125;BME280;36023;48.670;6.184;2023-04-20T09:45:53;98626.63;;;17.42;39.10
50125;BME280;36023;48.670;6.184;2023-04-20T09:48:20;98630.19;;;17.41;39.10
50125;BME280;36023;48.670;6.184;2023-04-20T09:50:47;98631.03;;;17.41;39.08
50125;BME280;36023;48.670;6.184;2023-04-20T09:53:15;98624.03;;;17.42;39.41
50125;BME280;36023;48.670;6.184;2023-04-20T09:55:48;98622.25;;;17.42;39.29
50125;BME280;36023;48.670;6.184;2023-04-20T09:58:18;98620.41;;;17.44;39.38
50125;BME280;36023;48.670;6.184;2023-04-20T10:00:47;98623.97;;;17.43;39.37
50125;BME280;36023;48.670;6.184;2023-04-20T10:03:17;98621.25;;;17.45;39.36
50125;BME280;36023;48.670;6.184;2023-04-20T10:05:43;98626.47;;;17.45;39.36
50125;BME280;36023;48.670;6.184;2023-04-20T10:08:09;98616.00;;;17.45;39.63
50125;BME280;36023;48.670;6.184;2023-04-20T10:10:47;98620.31;;;17.46;39.33
50125;BME280;36023;48.670;6.184;2023-04-20T10:13:13;98618.53;;;17.46;39.47
50125;BME280;36023;48.670;6.184;2023-04-20T10:15:41;98614.16;;;17.47;39.42
50125;BME280;36023;48.670;6.184;2023-04-20T10:18:22;98614.16;;;17.47;39.41
50125;BME280;36023;48.670;6.184;2023-04-20T10:20:50;98609.84;;;17.46;39.36
50125;BME280;36023;48.670;6.184;2023-04-20T10:23:16;98603.69;;;17.47;39.38
50125;BME280;36023;48.670;6.184;2023-04-20T10:25:54;98598.44;;;17.47;39.35
50125;BME280;36023;48.670;6.184;2023-04-20T10:28:21;98601.91;;;17.47;39.58
50125;BME280;36023;48.670;6.184;2023-04-20T10:30:52;98598.44;;;17.47;39.63
50125;BME280;36023;48.670;6.184;2023-04-20T10:33:18;98599.38;;;17.46;39.54
50125;BME280;36023;48.670;6.184;2023-04-20T10:35:53;98594.13;;;17.46;39.38
50125;BME280;36023;48.670;6.184;2023-04-20T10:38:34;98585.44;;;17.45;39.45
50125;BME280;36023;48.670;6.184;2023-04-20T10:41:11;98590.69;;;17.45;39.47
50125;BME280;36023;48.670;6.184;2023-04-20T10:43:39;98589.75;;;17.46;39.22
50125;BME280;36023;48.670;6.184;2023-04-20T10:48:55;98589.84;;;17.45;39.48
50125;BME280;36023;48.670;6.184;2023-04-20T10:51:22;98594.13;;;17.46;39.49
50125;BME280;36023;48.670;6.184;2023-04-20T10:54:04;98587.22;;;17.45;39.77
50125;BME280;36023;48.670;6.184;2023-04-20T10:59:15;98584.59;;;17.45;39.50
50125;BME280;36023;48.670;6.184;2023-04-20T11:01:43;98582.91;;;17.44;39.63
50125;BME280;36023;48.670;6.184;2023-04-20T11:04:10;98575.81;;;17.46;39.53
50125;BME280;36023;48.670;6.184;2023-04-20T11:06:40;98573.19;;;17.46;39.63
50125;BME280;36023;48.670;6.184;2023-04-20T11:09:21;98568.81;;;17.46;39.55
50125;BME280;36023;48.670;6.184;2023-04-20T11:12:05;98569.63;;;17.47;39.86
50125;BME280;36023;48.670;6.184;2023-04-20T11:14:37;98561.78;;;17.47;39.75
50125;BME280;36023;48.670;6.184;2023-04-20T11:17:03;98551.31;;;17.47;39.97
50125;BME280;36023;48.670;6.184;2023-04-20T11:19:31;98541.69;;;17.47;40.06
50125;BME280;36023;48.670;6.184;2023-04-20T11:21:58;98550.38;;;17.48;39.91
50125;BME280;36023;48.670;6.184;2023-04-20T11:24:28;98549.53;;;17.47;40.09
50125;BME280;36023;48.670;6.184;2023-04-20T11:26:56;98550.28;;;17.49;40.12
50125;BME280;36023;48.670;6.184;2023-04-20T11:29:54;98537.28;;;17.48;40.28
50125;BME280;36023;48.670;6.184;2023-04-20T11:32:21;98543.38;;;17.48;40.39
50125;BME280;36023;48.670;6.184;2023-04-20T11:34:57;98530.19;;;17.50;40.14
50125;BME280;36023;48.670;6.184;2023-04-20T11:37:23;98518.97;;;17.48;40.29
50125;BME280;36023;48.670;6.184;2023-04-20T11:40:05;98519.91;;;17.47;40.20
50125;BME280;36023;48.670;6.184;2023-04-20T11:42:36;98520.75;;;17.47;40.19
50125;BME280;36023;48.670;6.184;2023-04-20T11:45:02;98513.81;;;17.46;40.27
50125;BME280;36023;48.670;6.184;2023-04-20T11:47:28;98515.59;;;17.46;40.17
50125;BME280;36023;48.670;6.184;2023-04-20T11:49:54;98518.22;;;17.46;40.16
50125;BME280;36023;48.670;6.184;2023-04-20T11:52:20;98509.53;;;17.45;40.27
50125;BME280;36023;48.670;6.184;2023-04-20T11:54:45;98506.06;;;17.45;40.25
50125;BME280;36023;48.670;6.184;2023-04-20T11:57:11;98512.13;;;17.45;40.23
50125;BME280;36023;48.670;6.184;2023-04-20T11:59:37;98513.91;;;17.45;40.30
50125;BME280;36023;48.670;6.184;2023-04-20T12:02:03;98520.94;;;17.44;40.30
50125;BME280;36023;48.670;6.184;2023-04-20T12:04:30;98520.94;;;17.44;40.26
50125;BME280;36023;48.670;6.184;2023-04-20T12:06:56;98517.47;;;17.44;40.44
50125;BME280;36023;48.670;6.184;2023-04-20T12:09:25;98525.31;;;17.44;40.25
50125;BME280;36023;48.670;6.184;2023-04-20T12:11:51;98514.00;;;17.43;40.40
50125;BME280;36023;48.670;6.184;2023-04-20T12:14:17;98525.31;;;17.44;40.21
50125;BME280;36023;48.670;6.184;2023-04-20T12:16:42;98523.59;;;17.43;40.39
50125;BME280;36023;48.670;6.184;2023-04-20T12:19:08;98519.25;;;17.43;40.40
50125;BME280;36023;48.670;6.184;2023-04-20T12:21:34;98523.59;;;17.43;40.47
50125;BME280;36023;48.670;6.184;2023-04-20T12:24:01;98523.59;;;17.43;40.40
50125;BME280;36023;48.670;6.184;2023-04-20T12:26:27;98519.25;;;17.43;40.24
50125;BME280;36023;48.670;6.184;2023-04-20T12:28:53;98525.31;;;17.44;40.58
50125;BME280;36023;48.670;6.184;2023-04-20T12:31:19;98523.59;;;17.43;40.39
50125;BME280;36023;48.670;6.184;2023-04-20T12:33:44;98529.72;;;17.43;40.50
50125;BME280;36023;48.670;6.184;2023-04-20T12:36:10;98526.22;;;17.43;40.45
50125;BME280;36023;48.670;6.184;2023-04-20T12:38:35;98526.22;;;17.43;40.56
50125;BME280;36023;48.670;6.184;2023-04-20T12:41:01;98526.22;;;17.43;40.54
50125;BME280;36023;48.670;6.184;2023-04-20T12:43:32;98532.41;;;17.42;40.45
50125;BME280;36023;48.670;6.184;2023-04-20T12:45:58;98516.69;;;17.42;40.30
50125;BME280;36023;48.670;6.184;2023-04-20T12:48:24;98521.94;;;17.42;40.46
50125;BME280;36023;48.670;6.184;2023-04-20T12:50:50;98523.59;;;17.43;40.73
50125;BME280;36023;48.670;6.184;2023-04-20T12:53:16;98521.94;;;17.42;40.56
50125;BME280;36023;48.670;6.184;2023-04-20T12:55:45;98522.78;;;17.42;40.61
50125;BME280;36023;48.670;6.184;2023-04-20T12:58:12;98517.53;;;17.42;40.57
50125;BME280;36023;48.670;6.184;2023-04-20T13:00:41;98524.53;;;17.42;40.51
50125;BME280;36023;48.670;6.184;2023-04-20T13:03:08;98516.69;;;17.42;40.50
50125;BME280;36023;48.670;6.184;2023-04-20T13:05:33;98512.38;;;17.41;40.63
50125;BME280;36023;48.670;6.184;2023-04-20T13:08:00;98508.94;;;17.40;40.62